SWA1484 KDAL-KBHM
Flight info
| Callsign | SWA1484 |
|---|---|
| Flight time | 1h 18m |
| Altitude | 39000 |
| Route | LNDRE5 FORCK ELD SQS IGB NESTS |
| Aircraft | B738/M-SADE2E3GIJ4RWZ/LB1D1 |
Departure
| Time | 2026-04-25 01:33 |
|---|---|
| Airport | Dallas Love Field (KDAL) |
Arrival
| Time | 2026-04-25 02:52 |
|---|---|
| Airport | Birmingham-Shuttlesworth International Airport (KBHM) |
| Time | Latitude | Longitude | Altitude | Speed | Heading |
|---|---|---|---|---|---|
| 2026-04-25 01:01 | 32.84564 | -96.84830 | 477 ft | 0 kts | 0° |
| 2026-04-25 01:24 | 32.84560 | -96.84830 | 475 ft | 3 kts | 0° |
| 2026-04-25 01:24 | 32.84534 | -96.84832 | 476 ft | 4 kts | 12° |
| 2026-04-25 01:25 | 32.84513 | -96.84843 | 474 ft | 4 kts | 65° |
| 2026-04-25 01:25 | 32.84510 | -96.84853 | 474 ft | 0 kts | 91° |
| 2026-04-25 01:28 | 32.84510 | -96.84852 | 474 ft | 0 kts | 91° |
| 2026-04-25 01:29 | 32.84510 | -96.84849 | 474 ft | 0 kts | 91° |
| 2026-04-25 01:29 | 32.84509 | -96.84822 | 476 ft | 18 kts | 91° |
| 2026-04-25 01:29 | 32.84540 | -96.84670 | 481 ft | 19 kts | 44° |
| 2026-04-25 01:29 | 32.84616 | -96.84596 | 480 ft | 5 kts | 345° |
| 2026-04-25 01:30 | 32.84699 | -96.84664 | 484 ft | 25 kts | 313° |
| 2026-04-25 01:30 | 32.84830 | -96.84823 | 481 ft | 27 kts | 316° |
| 2026-04-25 01:30 | 32.84961 | -96.84970 | 484 ft | 25 kts | 315° |
| 2026-04-25 01:30 | 32.85079 | -96.85110 | 481 ft | 23 kts | 316° |
| 2026-04-25 01:31 | 32.85196 | -96.85246 | 478 ft | 25 kts | 316° |
| 2026-04-25 01:31 | 32.85326 | -96.85396 | 481 ft | 25 kts | 315° |
| 2026-04-25 01:31 | 32.85447 | -96.85538 | 479 ft | 24 kts | 315° |
| 2026-04-25 01:31 | 32.85562 | -96.85670 | 483 ft | 23 kts | 316° |
| 2026-04-25 01:32 | 32.85647 | -96.85743 | 478 ft | 9 kts | 13° |
| 2026-04-25 01:32 | 32.85693 | -96.85701 | 479 ft | 8 kts | 46° |
| 2026-04-25 01:32 | 32.85707 | -96.85655 | 485 ft | 4 kts | 127° |
| 2026-04-25 01:32 | 32.85684 | -96.85628 | 483 ft | 5 kts | 135° |
| 2026-04-25 01:33 | 32.85658 | -96.85597 | 485 ft | 6 kts | 136° |
| 2026-04-25 01:33 | 32.85588 | -96.85518 | 482 ft | 38 kts | 136° |
| 2026-04-25 01:33 | 32.85117 | -96.84972 | 488 ft | 148 kts | 135° |
| 2026-04-25 01:33 | 32.84233 | -96.83953 | 1150 ft | 190 kts | 137° |
| 2026-04-25 01:34 | 32.83207 | -96.82806 | 2104 ft | 218 kts | 139° |
| 2026-04-25 01:34 | 32.82026 | -96.81542 | 3005 ft | 236 kts | 140° |
| 2026-04-25 01:34 | 32.80920 | -96.80384 | 3804 ft | 216 kts | 141° |
| 2026-04-25 01:34 | 32.79826 | -96.79218 | 4650 ft | 220 kts | 141° |
| 2026-04-25 01:35 | 32.78719 | -96.78031 | 5181 ft | 209 kts | 141° |
| 2026-04-25 01:35 | 32.77585 | -96.76823 | 5817 ft | 228 kts | 141° |
| 2026-04-25 01:35 | 32.76357 | -96.75521 | 6423 ft | 246 kts | 141° |
| 2026-04-25 01:35 | 32.75053 | -96.74077 | 7003 ft | 266 kts | 139° |
| 2026-04-25 01:36 | 32.73722 | -96.72530 | 7784 ft | 276 kts | 138° |
| 2026-04-25 01:36 | 32.72338 | -96.70917 | 8708 ft | 280 kts | 139° |
| 2026-04-25 01:36 | 32.70938 | -96.69287 | 9614 ft | 285 kts | 139° |
| 2026-04-25 01:36 | 32.69505 | -96.67584 | 10293 ft | 303 kts | 136° |
| 2026-04-25 01:37 | 32.68364 | -96.65297 | 10596 ft | 345 kts | 107° |
| 2026-04-25 01:37 | 32.68090 | -96.62337 | 10885 ft | 377 kts | 90° |
| 2026-04-25 01:37 | 32.68111 | -96.59315 | 11527 ft | 391 kts | 89° |
| 2026-04-25 01:37 | 32.68132 | -96.56129 | 12361 ft | 398 kts | 86° |
| 2026-04-25 01:38 | 32.68706 | -96.52857 | 13291 ft | 402 kts | 66° |
| 2026-04-25 01:38 | 32.70083 | -96.49965 | 14139 ft | 404 kts | 52° |
| 2026-04-25 01:38 | 32.71697 | -96.47214 | 15014 ft | 408 kts | 51° |
| 2026-04-25 01:38 | 32.73340 | -96.44444 | 15899 ft | 412 kts | 52° |
| 2026-04-25 01:39 | 32.74984 | -96.41628 | 16760 ft | 418 kts | 52° |
| 2026-04-25 01:39 | 32.76629 | -96.38760 | 17617 ft | 423 kts | 53° |
| 2026-04-25 01:39 | 32.78268 | -96.35878 | 18391 ft | 428 kts | 53° |
| 2026-04-25 01:39 | 32.79676 | -96.32739 | 19070 ft | 439 kts | 69° |
| 2026-04-25 01:40 | 32.80292 | -96.29152 | 19847 ft | 444 kts | 81° |
| 2026-04-25 01:40 | 32.80662 | -96.25485 | 20575 ft | 449 kts | 82° |
| 2026-04-25 01:40 | 32.81000 | -96.21779 | 21230 ft | 455 kts | 83° |
| 2026-04-25 01:40 | 32.81343 | -96.18021 | 21886 ft | 460 kts | 82° |
| 2026-04-25 01:41 | 32.81706 | -96.14222 | 22548 ft | 464 kts | 82° |
| 2026-04-25 01:41 | 32.82087 | -96.10399 | 23192 ft | 468 kts | 81° |
| 2026-04-25 01:41 | 32.82482 | -96.06535 | 23731 ft | 473 kts | 81° |
| 2026-04-25 01:41 | 32.82884 | -96.02634 | 24231 ft | 478 kts | 81° |
| 2026-04-25 01:42 | 32.83292 | -95.98689 | 24710 ft | 482 kts | 81° |
| 2026-04-25 01:42 | 32.83701 | -95.94705 | 25196 ft | 487 kts | 81° |
| 2026-04-25 01:42 | 32.84110 | -95.90695 | 25682 ft | 491 kts | 81° |
| 2026-04-25 01:42 | 32.84522 | -95.86641 | 26160 ft | 496 kts | 81° |
| 2026-04-25 01:43 | 32.84935 | -95.82558 | 26619 ft | 500 kts | 80° |
| 2026-04-25 01:43 | 32.85351 | -95.78439 | 27066 ft | 504 kts | 80° |
| 2026-04-25 01:43 | 32.85770 | -95.74287 | 27507 ft | 508 kts | 80° |
| 2026-04-25 01:43 | 32.86187 | -95.70145 | 27927 ft | 512 kts | 80° |
| 2026-04-25 01:44 | 32.86609 | -95.65929 | 28334 ft | 516 kts | 80° |
| 2026-04-25 01:44 | 32.87035 | -95.61666 | 28735 ft | 520 kts | 80° |
| 2026-04-25 01:44 | 32.87461 | -95.57386 | 29136 ft | 523 kts | 80° |
| 2026-04-25 01:44 | 32.87882 | -95.53128 | 29528 ft | 527 kts | 80° |
| 2026-04-25 01:45 | 32.88311 | -95.48781 | 29895 ft | 530 kts | 80° |
| 2026-04-25 01:45 | 32.88740 | -95.44415 | 30291 ft | 531 kts | 80° |
| 2026-04-25 01:45 | 32.89165 | -95.40064 | 30849 ft | 528 kts | 80° |
| 2026-04-25 01:45 | 32.89586 | -95.35729 | 31404 ft | 525 kts | 80° |
| 2026-04-25 01:46 | 32.89999 | -95.31476 | 31883 ft | 525 kts | 80° |
| 2026-04-25 01:46 | 32.90417 | -95.27164 | 32344 ft | 524 kts | 80° |
| 2026-04-25 01:46 | 32.90834 | -95.22851 | 32815 ft | 524 kts | 80° |
| 2026-04-25 01:46 | 32.91247 | -95.18551 | 33336 ft | 522 kts | 80° |
| 2026-04-25 01:47 | 32.91658 | -95.14268 | 33848 ft | 520 kts | 80° |
| 2026-04-25 01:47 | 32.92066 | -95.09993 | 34268 ft | 519 kts | 80° |
| 2026-04-25 01:47 | 32.92472 | -95.05733 | 34664 ft | 518 kts | 81° |
| 2026-04-25 01:47 | 32.92739 | -95.02917 | 34915 ft | 518 kts | 81° |
| 2026-04-25 01:48 | 32.93278 | -94.97226 | 35486 ft | 516 kts | 81° |
| 2026-04-25 01:48 | 32.93676 | -94.92990 | 35913 ft | 514 kts | 81° |
| 2026-04-25 01:48 | 32.93939 | -94.90187 | 36188 ft | 514 kts | 81° |
| 2026-04-25 01:48 | 32.94335 | -94.85962 | 36581 ft | 513 kts | 81° |
| 2026-04-25 01:49 | 32.94727 | -94.81752 | 36985 ft | 512 kts | 82° |
| 2026-04-25 01:49 | 32.95118 | -94.77547 | 37389 ft | 510 kts | 82° |
| 2026-04-25 01:49 | 32.95506 | -94.73354 | 37806 ft | 509 kts | 82° |
| 2026-04-25 01:49 | 32.95891 | -94.69176 | 38265 ft | 506 kts | 82° |
| 2026-04-25 01:50 | 32.96273 | -94.65018 | 38674 ft | 504 kts | 82° |
| 2026-04-25 01:50 | 32.96653 | -94.60865 | 38769 ft | 507 kts | 82° |
| 2026-04-25 01:50 | 32.97412 | -94.52529 | 38795 ft | 504 kts | 82° |
| 2026-04-25 01:51 | 32.98158 | -94.44262 | 38812 ft | 500 kts | 82° |
| 2026-04-25 01:51 | 32.98896 | -94.36043 | 38826 ft | 498 kts | 83° |
| 2026-04-25 01:52 | 32.99625 | -94.27860 | 38826 ft | 496 kts | 83° |
| 2026-04-25 01:52 | 33.00749 | -94.19797 | 38838 ft | 494 kts | 76° |
| 2026-04-25 01:53 | 33.02254 | -94.11811 | 38834 ft | 494 kts | 75° |
| 2026-04-25 01:53 | 33.03749 | -94.03814 | 38830 ft | 495 kts | 76° |
| 2026-04-25 01:54 | 33.05167 | -93.95827 | 38816 ft | 496 kts | 77° |
| 2026-04-25 01:54 | 33.06562 | -93.87760 | 38815 ft | 497 kts | 77° |
| 2026-04-25 01:55 | 33.07950 | -93.79681 | 38813 ft | 497 kts | 77° |
| 2026-04-25 01:55 | 33.09328 | -93.71652 | 38811 ft | 497 kts | 77° |
| 2026-04-25 01:56 | 33.10709 | -93.63582 | 38814 ft | 498 kts | 77° |
| 2026-04-25 01:56 | 33.12078 | -93.55552 | 38814 ft | 497 kts | 78° |
| 2026-04-25 01:57 | 33.14136 | -93.43422 | 38817 ft | 497 kts | 78° |
| 2026-04-25 01:58 | 33.15501 | -93.35333 | 38825 ft | 496 kts | 78° |
| 2026-04-25 01:58 | 33.16856 | -93.27269 | 38822 ft | 495 kts | 78° |
| 2026-04-25 01:59 | 33.18195 | -93.19263 | 38820 ft | 494 kts | 78° |
| 2026-04-25 01:59 | 33.19535 | -93.11226 | 38821 ft | 494 kts | 79° |
| 2026-04-25 02:00 | 33.20869 | -93.03187 | 38825 ft | 493 kts | 79° |
| 2026-04-25 02:00 | 33.22194 | -92.95167 | 38847 ft | 492 kts | 79° |
| 2026-04-25 02:01 | 33.23514 | -92.87145 | 38853 ft | 492 kts | 79° |
| 2026-04-25 02:01 | 33.24830 | -92.79122 | 38852 ft | 491 kts | 79° |
| 2026-04-25 02:02 | 33.26018 | -92.71093 | 38852 ft | 491 kts | 83° |
| 2026-04-25 02:02 | 33.26788 | -92.62988 | 38847 ft | 491 kts | 86° |
| 2026-04-25 02:03 | 33.27467 | -92.54871 | 38841 ft | 491 kts | 86° |
| 2026-04-25 02:03 | 33.28179 | -92.46750 | 38834 ft | 491 kts | 85° |
| 2026-04-25 02:04 | 33.28914 | -92.38676 | 38840 ft | 492 kts | 85° |
| 2026-04-25 02:04 | 33.29659 | -92.30536 | 38849 ft | 493 kts | 85° |
| 2026-04-25 02:05 | 33.30400 | -92.22377 | 38847 ft | 493 kts | 86° |
| 2026-04-25 02:05 | 33.31133 | -92.14222 | 38842 ft | 494 kts | 86° |
| 2026-04-25 02:06 | 33.31863 | -92.06036 | 38844 ft | 495 kts | 86° |
| 2026-04-25 02:06 | 33.32587 | -91.97842 | 38843 ft | 495 kts | 86° |
| 2026-04-25 02:07 | 33.33307 | -91.89646 | 38850 ft | 495 kts | 85° |
| 2026-04-25 02:07 | 33.34016 | -91.81508 | 38850 ft | 496 kts | 85° |
| 2026-04-25 02:08 | 33.34711 | -91.73470 | 38848 ft | 496 kts | 85° |
| 2026-04-25 02:08 | 33.35414 | -91.65285 | 38850 ft | 495 kts | 85° |
| 2026-04-25 02:09 | 33.36110 | -91.57103 | 38848 ft | 495 kts | 85° |
| 2026-04-25 02:09 | 33.36807 | -91.48851 | 38846 ft | 495 kts | 85° |
| 2026-04-25 02:10 | 33.37490 | -91.40703 | 38839 ft | 495 kts | 85° |
| 2026-04-25 02:10 | 33.38172 | -91.32504 | 38851 ft | 495 kts | 86° |
| 2026-04-25 02:11 | 33.38847 | -91.24314 | 38859 ft | 495 kts | 86° |
| 2026-04-25 02:11 | 33.39518 | -91.16113 | 38862 ft | 494 kts | 86° |
| 2026-04-25 02:12 | 33.40183 | -91.07912 | 38868 ft | 494 kts | 86° |
| 2026-04-25 02:12 | 33.40837 | -90.99784 | 38874 ft | 494 kts | 86° |
| 2026-04-25 02:13 | 33.41491 | -90.91588 | 38865 ft | 493 kts | 86° |
| 2026-04-25 02:13 | 33.42137 | -90.83425 | 38866 ft | 492 kts | 86° |
| 2026-04-25 02:14 | 33.42776 | -90.75274 | 38867 ft | 492 kts | 86° |
| 2026-04-25 02:14 | 33.43411 | -90.67111 | 38867 ft | 491 kts | 86° |
| 2026-04-25 02:15 | 33.44039 | -90.58969 | 38860 ft | 491 kts | 86° |
| 2026-04-25 02:15 | 33.44661 | -90.50824 | 38870 ft | 491 kts | 86° |
| 2026-04-25 02:16 | 33.45276 | -90.42722 | 38860 ft | 492 kts | 86° |
| 2026-04-25 02:16 | 33.45889 | -90.34563 | 38865 ft | 492 kts | 86° |
| 2026-04-25 02:17 | 33.46473 | -90.26367 | 38860 ft | 493 kts | 88° |
| 2026-04-25 02:17 | 33.46696 | -90.18173 | 38853 ft | 492 kts | 91° |
| 2026-04-25 02:18 | 33.46772 | -90.09968 | 38854 ft | 492 kts | 91° |
| 2026-04-25 02:18 | 33.46868 | -90.01761 | 38853 ft | 493 kts | 90° |
| 2026-04-25 02:19 | 33.46992 | -89.93676 | 38853 ft | 493 kts | 90° |
| 2026-04-25 02:19 | 33.47125 | -89.85474 | 38866 ft | 493 kts | 90° |
| 2026-04-25 02:20 | 33.47254 | -89.77268 | 38877 ft | 492 kts | 90° |
| 2026-04-25 02:20 | 33.47375 | -89.69065 | 38889 ft | 492 kts | 90° |
| 2026-04-25 02:21 | 33.47489 | -89.60886 | 38892 ft | 491 kts | 90° |
| 2026-04-25 02:21 | 33.47598 | -89.52697 | 38892 ft | 491 kts | 90° |
| 2026-04-25 02:22 | 33.47701 | -89.44517 | 38892 ft | 491 kts | 90° |
| 2026-04-25 02:22 | 33.47798 | -89.36404 | 38892 ft | 490 kts | 90° |
| 2026-04-25 02:23 | 33.47891 | -89.28200 | 38355 ft | 493 kts | 90° |
| 2026-04-25 02:23 | 33.47935 | -89.24139 | 37767 ft | 488 kts | 90° |
| 2026-04-25 02:23 | 33.47978 | -89.20070 | 37190 ft | 484 kts | 90° |
| 2026-04-25 02:23 | 33.48019 | -89.16058 | 36599 ft | 481 kts | 90° |
| 2026-04-25 02:24 | 33.48058 | -89.12068 | 36011 ft | 478 kts | 90° |
| 2026-04-25 02:24 | 33.48096 | -89.08091 | 35387 ft | 476 kts | 90° |
| 2026-04-25 02:24 | 33.48133 | -89.04118 | 34740 ft | 476 kts | 90° |
| 2026-04-25 02:24 | 33.48168 | -89.00157 | 34091 ft | 475 kts | 90° |
| 2026-04-25 02:25 | 33.48202 | -88.96201 | 33345 ft | 475 kts | 90° |
| 2026-04-25 02:25 | 33.48235 | -88.92249 | 32602 ft | 474 kts | 90° |
| 2026-04-25 02:25 | 33.48266 | -88.88302 | 31880 ft | 473 kts | 90° |
| 2026-04-25 02:25 | 33.48296 | -88.84390 | 31380 ft | 466 kts | 90° |
| 2026-04-25 02:26 | 33.48324 | -88.80583 | 30894 ft | 460 kts | 90° |
| 2026-04-25 02:26 | 33.48351 | -88.76775 | 30408 ft | 453 kts | 90° |
| 2026-04-25 02:26 | 33.48376 | -88.73014 | 29931 ft | 450 kts | 90° |
| 2026-04-25 02:26 | 33.48400 | -88.69224 | 29414 ft | 462 kts | 90° |
| 2026-04-25 02:27 | 33.48424 | -88.65341 | 28850 ft | 466 kts | 90° |
| 2026-04-25 02:27 | 33.48447 | -88.61500 | 28330 ft | 457 kts | 90° |
| 2026-04-25 02:27 | 33.48468 | -88.57732 | 27806 ft | 448 kts | 90° |
| 2026-04-25 02:27 | 33.48488 | -88.54024 | 27303 ft | 440 kts | 90° |
| 2026-04-25 02:28 | 33.48564 | -88.50384 | 26837 ft | 433 kts | 85° |
| 2026-04-25 02:28 | 33.48905 | -88.46852 | 26607 ft | 423 kts | 82° |
| 2026-04-25 02:28 | 33.49284 | -88.43651 | 26380 ft | 436 kts | 81° |
| 2026-04-25 02:28 | 33.49733 | -88.40057 | 25982 ft | 434 kts | 81° |
| 2026-04-25 02:29 | 33.50178 | -88.36492 | 25310 ft | 432 kts | 81° |
| 2026-04-25 02:29 | 33.50612 | -88.32935 | 24603 ft | 431 kts | 81° |
| 2026-04-25 02:29 | 33.51033 | -88.29388 | 23935 ft | 429 kts | 82° |
| 2026-04-25 02:29 | 33.51444 | -88.25856 | 23324 ft | 425 kts | 82° |
| 2026-04-25 02:30 | 33.51845 | -88.22367 | 22664 ft | 420 kts | 82° |
| 2026-04-25 02:30 | 33.52238 | -88.18916 | 22022 ft | 416 kts | 82° |
| 2026-04-25 02:30 | 33.52625 | -88.15502 | 21388 ft | 412 kts | 82° |
| 2026-04-25 02:30 | 33.53007 | -88.12121 | 20815 ft | 407 kts | 82° |
| 2026-04-25 02:31 | 33.53382 | -88.08789 | 20314 ft | 400 kts | 82° |
| 2026-04-25 02:31 | 33.53752 | -88.05500 | 19831 ft | 394 kts | 82° |
| 2026-04-25 02:31 | 33.54116 | -88.02261 | 19357 ft | 389 kts | 82° |
| 2026-04-25 02:31 | 33.54469 | -87.99112 | 18890 ft | 385 kts | 82° |
| 2026-04-25 02:32 | 33.54828 | -87.95901 | 18387 ft | 381 kts | 82° |
| 2026-04-25 02:32 | 33.55173 | -87.92814 | 17920 ft | 377 kts | 82° |
| 2026-04-25 02:32 | 33.55517 | -87.89719 | 17427 ft | 372 kts | 82° |
| 2026-04-25 02:32 | 33.55846 | -87.86755 | 16992 ft | 367 kts | 82° |
| 2026-04-25 02:33 | 33.56181 | -87.83742 | 16579 ft | 365 kts | 82° |
| 2026-04-25 02:33 | 33.56514 | -87.80727 | 16138 ft | 364 kts | 82° |
| 2026-04-25 02:33 | 33.56849 | -87.77690 | 15705 ft | 371 kts | 82° |
| 2026-04-25 02:33 | 33.57192 | -87.74584 | 15254 ft | 377 kts | 82° |
| 2026-04-25 02:34 | 33.57533 | -87.71476 | 14790 ft | 373 kts | 82° |
| 2026-04-25 02:34 | 33.57868 | -87.68418 | 14325 ft | 368 kts | 82° |
| 2026-04-25 02:34 | 33.58199 | -87.65389 | 13865 ft | 363 kts | 82° |
| 2026-04-25 02:34 | 33.58524 | -87.62403 | 13398 ft | 359 kts | 82° |
| 2026-04-25 02:35 | 33.58845 | -87.59459 | 12927 ft | 354 kts | 82° |
| 2026-04-25 02:35 | 33.59055 | -87.57524 | 12624 ft | 351 kts | 82° |
| 2026-04-25 02:35 | 33.59368 | -87.54639 | 12187 ft | 347 kts | 82° |
| 2026-04-25 02:35 | 33.59676 | -87.51788 | 11746 ft | 342 kts | 82° |
| 2026-04-25 02:36 | 33.59980 | -87.48977 | 11332 ft | 339 kts | 82° |
| 2026-04-25 02:36 | 33.60382 | -87.45239 | 10786 ft | 342 kts | 83° |
| 2026-04-25 02:36 | 33.60588 | -87.43327 | 10604 ft | 342 kts | 82° |
| 2026-04-25 02:36 | 33.60892 | -87.40496 | 10432 ft | 339 kts | 83° |
| 2026-04-25 02:37 | 33.61185 | -87.37753 | 10287 ft | 326 kts | 83° |
| 2026-04-25 02:37 | 33.61468 | -87.35106 | 10141 ft | 314 kts | 83° |
| 2026-04-25 02:37 | 33.61662 | -87.32551 | 10018 ft | 302 kts | 86° |
| 2026-04-25 02:37 | 33.61776 | -87.30080 | 9884 ft | 293 kts | 88° |
| 2026-04-25 02:38 | 33.61869 | -87.27650 | 9595 ft | 290 kts | 88° |
| 2026-04-25 02:38 | 33.61899 | -87.26866 | 9495 ft | 289 kts | 88° |
| 2026-04-25 02:39 | 33.61934 | -87.25938 | 9384 ft | 288 kts | 88° |
| 2026-04-25 02:39 | 33.62027 | -87.23554 | 9088 ft | 285 kts | 88° |
| 2026-04-25 02:39 | 33.62104 | -87.21426 | 8862 ft | 286 kts | 88° |
| 2026-04-25 02:39 | 33.62171 | -87.19604 | 8677 ft | 291 kts | 88° |
| 2026-04-25 02:40 | 33.62303 | -87.17068 | 8452 ft | 316 kts | 83° |
| 2026-04-25 02:40 | 33.62689 | -87.14529 | 8196 ft | 308 kts | 78° |
| 2026-04-25 02:40 | 33.63158 | -87.12099 | 7931 ft | 291 kts | 77° |
| 2026-04-25 02:40 | 33.63605 | -87.09797 | 7684 ft | 276 kts | 77° |
| 2026-04-25 02:41 | 33.64018 | -87.07577 | 7440 ft | 271 kts | 78° |
| 2026-04-25 02:41 | 33.64417 | -87.05346 | 7220 ft | 278 kts | 78° |
| 2026-04-25 02:41 | 33.64817 | -87.03053 | 6993 ft | 284 kts | 79° |
| 2026-04-25 02:41 | 33.65215 | -87.00722 | 6765 ft | 283 kts | 79° |
| 2026-04-25 02:42 | 33.65605 | -86.98418 | 6539 ft | 278 kts | 79° |
| 2026-04-25 02:42 | 33.65983 | -86.96165 | 6301 ft | 273 kts | 79° |
| 2026-04-25 02:42 | 33.66350 | -86.93969 | 6054 ft | 271 kts | 79° |
| 2026-04-25 02:42 | 33.66721 | -86.91750 | 5811 ft | 270 kts | 79° |
| 2026-04-25 02:43 | 33.67070 | -86.89538 | 5565 ft | 267 kts | 83° |
| 2026-04-25 02:43 | 33.67218 | -86.87390 | 5479 ft | 249 kts | 88° |
| 2026-04-25 02:43 | 33.67293 | -86.85382 | 5342 ft | 232 kts | 89° |
| 2026-04-25 02:43 | 33.67359 | -86.83508 | 5248 ft | 218 kts | 89° |
| 2026-04-25 02:44 | 33.67425 | -86.81732 | 5069 ft | 209 kts | 89° |
| 2026-04-25 02:44 | 33.67493 | -86.80017 | 4840 ft | 203 kts | 89° |
| 2026-04-25 02:44 | 33.67562 | -86.78352 | 4610 ft | 197 kts | 89° |
| 2026-04-25 02:44 | 33.67630 | -86.76729 | 4363 ft | 193 kts | 89° |
| 2026-04-25 02:45 | 33.67699 | -86.75130 | 4105 ft | 190 kts | 90° |
| 2026-04-25 02:45 | 33.67767 | -86.73552 | 3852 ft | 188 kts | 89° |
| 2026-04-25 02:45 | 33.67835 | -86.72005 | 3658 ft | 182 kts | 90° |
| 2026-04-25 02:45 | 33.67903 | -86.70462 | 3624 ft | 184 kts | 90° |
| 2026-04-25 02:46 | 33.67969 | -86.68984 | 3595 ft | 174 kts | 90° |
| 2026-04-25 02:46 | 33.68033 | -86.67551 | 3591 ft | 170 kts | 90° |
| 2026-04-25 02:46 | 33.68096 | -86.66129 | 3586 ft | 171 kts | 90° |
| 2026-04-25 02:46 | 33.68158 | -86.64700 | 3604 ft | 172 kts | 90° |
| 2026-04-25 02:47 | 33.68222 | -86.63261 | 3599 ft | 173 kts | 90° |
| 2026-04-25 02:47 | 33.68285 | -86.61814 | 3589 ft | 174 kts | 90° |
| 2026-04-25 02:47 | 33.68117 | -86.60426 | 3557 ft | 167 kts | 127° |
| 2026-04-25 02:47 | 33.67183 | -86.59751 | 3544 ft | 160 kts | 179° |
| 2026-04-25 02:48 | 33.66194 | -86.60241 | 3477 ft | 159 kts | 219° |
| 2026-04-25 02:48 | 33.65302 | -86.61042 | 3291 ft | 158 kts | 214° |
| 2026-04-25 02:48 | 33.64506 | -86.61913 | 3088 ft | 151 kts | 227° |
| 2026-04-25 02:48 | 33.63831 | -86.62829 | 2893 ft | 143 kts | 228° |
| 2026-04-25 02:49 | 33.63215 | -86.63749 | 2717 ft | 141 kts | 231° |
| 2026-04-25 02:49 | 33.62629 | -86.64722 | 2542 ft | 147 kts | 234° |
| 2026-04-25 02:49 | 33.62042 | -86.65730 | 2338 ft | 147 kts | 234° |
| 2026-04-25 02:49 | 33.61469 | -86.66726 | 2152 ft | 146 kts | 234° |
| 2026-04-25 02:50 | 33.60897 | -86.67723 | 1968 ft | 145 kts | 233° |
| 2026-04-25 02:50 | 33.60328 | -86.68714 | 1779 ft | 145 kts | 234° |
| 2026-04-25 02:50 | 33.59779 | -86.69675 | 1625 ft | 145 kts | 234° |
| 2026-04-25 02:50 | 33.59205 | -86.70685 | 1419 ft | 149 kts | 234° |
| 2026-04-25 02:51 | 33.58613 | -86.71715 | 1233 ft | 149 kts | 234° |
| 2026-04-25 02:51 | 33.58020 | -86.72748 | 998 ft | 152 kts | 234° |
| 2026-04-25 02:51 | 33.57415 | -86.73793 | 764 ft | 152 kts | 235° |
| 2026-04-25 02:51 | 33.56835 | -86.74810 | 626 ft | 138 kts | 235° |
| 2026-04-25 02:52 | 33.56360 | -86.75627 | 617 ft | 103 kts | 235° |
| 2026-04-25 02:52 | 33.56035 | -86.76192 | 614 ft | 61 kts | 236° |
| 2026-04-25 02:52 | 33.55884 | -86.76430 | 607 ft | 13 kts | 184° |
| 2026-04-25 02:52 | 33.55838 | -86.76399 | 613 ft | 2 kts | 128° |
| 2026-04-25 02:53 | 33.55858 | -86.76297 | 608 ft | 22 kts | 57° |
| 2026-04-25 02:53 | 33.55952 | -86.76133 | 612 ft | 27 kts | 55° |
| 2026-04-25 02:53 | 33.56060 | -86.75946 | 608 ft | 27 kts | 55° |
| 2026-04-25 02:53 | 33.56160 | -86.75771 | 608 ft | 20 kts | 56° |
| 2026-04-25 02:54 | 33.56156 | -86.75647 | 609 ft | 15 kts | 98° |
| 2026-04-25 02:54 | 33.56211 | -86.75518 | 614 ft | 21 kts | 56° |
| 2026-04-25 02:54 | 33.56302 | -86.75360 | 610 ft | 25 kts | 56° |
| 2026-04-25 02:54 | 33.56397 | -86.75192 | 612 ft | 19 kts | 55° |
| 2026-04-25 02:55 | 33.56431 | -86.75106 | 611 ft | 8 kts | 107° |
| 2026-04-25 02:55 | 33.56402 | -86.75082 | 608 ft | 3 kts | 160° |
| 2026-04-25 02:55 | 33.56392 | -86.75078 | 619 ft | 1 kts | 161° |
| 2026-04-25 02:55 | 33.56391 | -86.75078 | 614 ft | 0 kts | 162° |